Terminal Aerodrome Forecast
Issued by NWS

Home | Current Version | Previous Version | Text Only | Print | Product List | Glossary On
Versions: 1 2 3 4 5 6 7 8 9 10 11 12 13 14 15 16 17 18 19 20
571
FTUS43 KILX 201734
TAFBMI
TAF
KBMI 201734Z 2018/2118 20004KT 6SM BR OVC003
     FM202100 20005KT P6SM OVC008
     FM210000 14006KT 5SM BR OVC003
     FM210500 17009KT 1SM BR OVC003
     FM211500 16011KT 2SM BR BKN008
     FM211700 18012G21KT 4SM BR BKN025=

USA.gov is the U.S. government's official web portal to all federal, state and local government web resources and services.